»·PEaware :: N1793Q KPRC-KFLG

N1793Q :: KPRC-KFLG

FLIGHT INFORMATION

Flight Status: Arrived
Operator: Privately registered:
United States
More flights under this callsign
Pilot: Cody L. (44148)
Aircraft: CESSNA 172 SKYHAWK
(C172)
More flights by this aircraft type
Origin: KPRC Love
United States
Destination: KFLG Flagstaff Pulliam
United States
More flights between these airports :: More routes between these airports
Route: DRRTY OATES
File this flight plan on PilotEdge
Remarks:
Altitude:
(Current/Filed)
11,000ft
Speed:
(Current/Filed)
115kts
Departed: 17-Sep-23 04:18 PM
Arrived: 17-Sep-23 05:17 PM
Distance/Time
Traveled:
47nm/0:59
Distance/Time
To Go:
Arrived

Flight Plot

Page will automatically refresh every two minutes.

Flight plan parsing failed; only flown route is shown


Map Options




Map Legend


Flown Route
Filed Route
Departure Airport
Arrival Airport
Navaid (VOR, NDB)
Fix

Horizontal Profiles

Position Reports

Time Latitude Longitude Heading Altitude Ground
Speed
17-Sep-23 15:55 34.650311 -112.427131 43 5017ft 0kts
17-Sep-23 15:55 34.650311 -112.427131 43 5017ft 0kts
17-Sep-23 15:57 34.650311 -112.427131 43 5017ft 0kts
17-Sep-23 15:58 34.650311 -112.427131 43 5017ft 0kts
17-Sep-23 15:59 34.650311 -112.427131 43 5017ft 0kts
17-Sep-23 16:00 34.650311 -112.427131 43 5017ft 0kts
17-Sep-23 16:00 34.650311 -112.427131 43 5017ft 0kts
17-Sep-23 16:01 34.650311 -112.427131 43 5017ft 0kts
17-Sep-23 16:03 34.650311 -112.427131 43 5017ft 0kts
17-Sep-23 16:04 34.650311 -112.427131 43 5017ft 0kts
17-Sep-23 16:04 34.650311 -112.427131 43 5017ft 0kts
17-Sep-23 16:05 34.650311 -112.427131 43 5017ft 0kts
17-Sep-23 16:06 34.650311 -112.427131 43 5017ft 0kts
17-Sep-23 16:08 34.650311 -112.427131 43 5017ft 0kts
17-Sep-23 16:08 34.651211 -112.427689 316 5017ft 10kts
17-Sep-23 16:09 34.652079 -112.428903 3 5019ft 0kts
17-Sep-23 16:10 34.652079 -112.428903 3 5019ft 0kts
17-Sep-23 16:11 34.652079 -112.428903 3 5019ft 0kts
17-Sep-23 16:12 34.652079 -112.428903 3 5019ft 0kts
17-Sep-23 16:13 34.652079 -112.428903 3 5019ft 0kts
17-Sep-23 16:14 34.652806 -112.428958 304 5020ft 3kts
17-Sep-23 16:15 34.652325 -112.428995 118 5020ft 0kts
17-Sep-23 16:16 34.652378 -112.428427 68 5020ft 16kts
17-Sep-23 16:17 34.642192 -112.414549 112 5338ft 69kts
17-Sep-23 16:18 34.636151 -112.390445 112 5469ft 74kts
17-Sep-23 16:19 34.630765 -112.364117 111 5596ft 81kts
17-Sep-23 16:20 34.626854 -112.336032 112 5979ft 88kts
17-Sep-23 16:21 34.622633 -112.306272 110 6304ft 93kts
17-Sep-23 16:22 34.616708 -112.275921 110 6868ft 93kts
17-Sep-23 16:23 34.608365 -112.245938 110 7423ft 93kts
17-Sep-23 16:24 34.600111 -112.216146 110 7949ft 93kts
17-Sep-23 16:25 34.591729 -112.186006 110 8447ft 94kts
17-Sep-23 16:26 34.583260 -112.155585 110 8911ft 95kts
17-Sep-23 16:27 34.574725 -112.124914 110 9344ft 96kts
17-Sep-23 16:28 34.566146 -112.094126 110 9741ft 96kts
17-Sep-23 16:29 34.557576 -112.063457 110 10064ft 97kts
17-Sep-23 16:30 34.548893 -112.032338 110 10474ft 97kts
17-Sep-23 16:31 34.539693 -111.999550 110 10698ft 114kts
17-Sep-23 16:32 34.554382 -111.968032 52 10696ft 121kts
17-Sep-23 16:33 34.575138 -111.934942 53 10694ft 124kts
17-Sep-23 16:34 34.595901 -111.901486 53 10696ft 124kts
17-Sep-23 16:35 34.616671 -111.867982 53 10695ft 124kts
17-Sep-23 16:36 34.637506 -111.834352 53 10694ft 124kts
17-Sep-23 16:37 34.658283 -111.800830 53 10693ft 124kts
17-Sep-23 16:38 34.679077 -111.767331 53 10692ft 124kts
17-Sep-23 16:39 34.699631 -111.734181 53 10685ft 121kts
17-Sep-23 16:40 34.719524 -111.701617 55 10684ft 119kts
17-Sep-23 16:41 34.739287 -111.668933 53 10685ft 120kts
17-Sep-23 16:42 34.759322 -111.636284 53 10687ft 120kts
17-Sep-23 16:43 34.779419 -111.603518 53 10687ft 120kts
17-Sep-23 16:44 34.799512 -111.570732 53 10686ft 120kts
17-Sep-23 16:45 34.819569 -111.537975 53 10684ft 120kts
17-Sep-23 16:46 34.839496 -111.505395 53 10685ft 120kts
17-Sep-23 16:47 34.859386 -111.472853 53 10683ft 119kts
17-Sep-23 16:48 34.879197 -111.440405 53 10686ft 119kts
17-Sep-23 16:49 34.899040 -111.407877 53 10685ft 119kts
17-Sep-23 16:50 34.918877 -111.375332 53 10686ft 119kts
17-Sep-23 16:51 34.938974 -111.342317 53 10694ft 122kts
17-Sep-23 16:52 34.963547 -111.315951 16 10689ft 121kts
17-Sep-23 16:53 34.996074 -111.304196 16 10690ft 122kts
17-Sep-23 16:54 35.028737 -111.292404 16 10693ft 122kts
17-Sep-23 16:55 35.061311 -111.280638 16 10694ft 122kts
17-Sep-23 16:56 35.093850 -111.268875 16 10694ft 121kts
17-Sep-23 16:57 35.126485 -111.257065 16 10693ft 122kts
17-Sep-23 16:58 35.159168 -111.245231 16 10694ft 122kts
17-Sep-23 16:59 35.191654 -111.233459 16 10695ft 121kts
17-Sep-23 17:00 35.218121 -111.250196 307 10686ft 119kts
17-Sep-23 17:01 35.238366 -111.282403 307 10689ft 119kts
17-Sep-23 17:02 35.258673 -111.314764 307 10687ft 120kts
17-Sep-23 17:03 35.279095 -111.347353 307 10687ft 120kts
17-Sep-23 17:04 35.299509 -111.379953 307 10686ft 120kts
17-Sep-23 17:05 35.319927 -111.412595 307 10686ft 120kts
17-Sep-23 17:06 35.327863 -111.447986 229 10678ft 119kts
17-Sep-23 17:07 35.304345 -111.475843 226 10701ft 116kts
17-Sep-23 17:08 35.281689 -111.503487 226 10513ft 104kts
17-Sep-23 17:09 35.261888 -111.526442 225 9990ft 97kts
17-Sep-23 17:10 35.242312 -111.549785 229 9542ft 97kts
17-Sep-23 17:11 35.222646 -111.573114 226 9177ft 99kts
17-Sep-23 17:12 35.202129 -111.597347 225 8568ft 104kts
17-Sep-23 17:13 35.182222 -111.622268 229 7951ft 95kts
17-Sep-23 17:14 35.164236 -111.643635 221 7482ft 90kts
17-Sep-23 17:15 35.146581 -111.662535 222 7029ft 76kts
17-Sep-23 17:16 35.140848 -111.669126 263 7002ft 0kts
17-Sep-23 17:17 35.137992 -111.673520 223 7008ft 27kts

Navigation Log

Ident Type
Flight plan parsing failed, navigation log unavailable